sensor_id;sensor_type;location;lat;lon;timestamp;temperature;humidity
32428;DHT22;18882;50.952;4.366;2022-08-21T00:00:43;17.00;99.90
32428;DHT22;18882;50.952;4.366;2022-08-21T00:03:10;17.00;99.90
32428;DHT22;18882;50.952;4.366;2022-08-21T00:05:41;17.00;99.90
32428;DHT22;18882;50.952;4.366;2022-08-21T00:08:07;16.90;99.90
32428;DHT22;18882;50.952;4.366;2022-08-21T00:10:33;16.90;99.90
32428;DHT22;18882;50.952;4.366;2022-08-21T00:13:00;16.90;99.90
32428;DHT22;18882;50.952;4.366;2022-08-21T00:15:29;16.90;99.90
32428;DHT22;18882;50.952;4.366;2022-08-21T00:17:55;17.00;99.90
32428;DHT22;18882;50.952;4.366;2022-08-21T00:20:22;16.90;99.90
32428;DHT22;18882;50.952;4.366;2022-08-21T00:22:49;16.80;99.90
32428;DHT22;18882;50.952;4.366;2022-08-21T00:25:15;16.70;99.90
32428;DHT22;18882;50.952;4.366;2022-08-21T00:27:42;16.80;99.90
32428;DHT22;18882;50.952;4.366;2022-08-21T00:30:10;16.70;99.90
32428;DHT22;18882;50.952;4.366;2022-08-21T00:32:37;16.60;99.90
32428;DHT22;18882;50.952;4.366;2022-08-21T00:35:05;16.60;99.90
32428;DHT22;18882;50.952;4.366;2022-08-21T00:37:31;16.60;99.90
32428;DHT22;18882;50.952;4.366;2022-08-21T00:39:56;16.70;99.90
32428;DHT22;18882;50.952;4.366;2022-08-21T00:42:22;16.60;99.90
32428;DHT22;18882;50.952;4.366;2022-08-21T00:44:49;16.60;99.90
32428;DHT22;18882;50.952;4.366;2022-08-21T00:47:16;16.60;99.90
32428;DHT22;18882;50.952;4.366;2022-08-21T00:49:43;16.60;99.90
32428;DHT22;18882;50.952;4.366;2022-08-21T00:52:13;16.50;99.90
32428;DHT22;18882;50.952;4.366;2022-08-21T00:54:41;16.50;99.90
32428;DHT22;18882;50.952;4.366;2022-08-21T00:57:13;16.50;99.90
32428;DHT22;18882;50.952;4.366;2022-08-21T00:59:40;16.50;99.90
32428;DHT22;18882;50.952;4.366;2022-08-21T01:02:08;16.50;99.90
32428;DHT22;18882;50.952;4.366;2022-08-21T01:04:35;16.50;99.90
32428;DHT22;18882;50.952;4.366;2022-08-21T01:07:01;16.40;99.90
32428;DHT22;18882;50.952;4.366;2022-08-21T01:09:28;16.30;99.90
32428;DHT22;18882;50.952;4.366;2022-08-21T01:11:54;16.30;99.90
32428;DHT22;18882;50.952;4.366;2022-08-21T01:14:20;16.30;99.90
32428;DHT22;18882;50.952;4.366;2022-08-21T01:16:48;16.20;99.90
32428;DHT22;18882;50.952;4.366;2022-08-21T01:19:16;16.20;99.90
32428;DHT22;18882;50.952;4.366;2022-08-21T01:21:42;16.20;99.90
32428;DHT22;18882;50.952;4.366;2022-08-21T01:24:09;16.10;99.90
32428;DHT22;18882;50.952;4.366;2022-08-21T01:26:35;16.10;99.90
32428;DHT22;18882;50.952;4.366;2022-08-21T01:29:34;16.00;99.90
32428;DHT22;18882;50.952;4.366;2022-08-21T01:32:10;16.00;99.90
32428;DHT22;18882;50.952;4.366;2022-08-21T01:34:38;16.00;99.90
32428;DHT22;18882;50.952;4.366;2022-08-21T01:37:04;16.00;99.90
32428;DHT22;18882;50.952;4.366;2022-08-21T01:39:30;15.90;99.90
32428;DHT22;18882;50.952;4.366;2022-08-21T01:41:55;15.90;99.90
32428;DHT22;18882;50.952;4.366;2022-08-21T01:44:23;15.90;99.90
32428;DHT22;18882;50.952;4.366;2022-08-21T01:46:49;15.90;99.90
32428;DHT22;18882;50.952;4.366;2022-08-21T01:49:15;15.80;99.90
32428;DHT22;18882;50.952;4.366;2022-08-21T01:51:42;15.80;99.90
32428;DHT22;18882;50.952;4.366;2022-08-21T01:54:08;15.90;99.90
32428;DHT22;18882;50.952;4.366;2022-08-21T01:56:53;15.90;99.90
32428;DHT22;18882;50.952;4.366;2022-08-21T01:59:19;15.80;99.90
32428;DHT22;18882;50.952;4.366;2022-08-21T02:01:45;15.80;99.90
32428;DHT22;18882;50.952;4.366;2022-08-21T02:04:12;15.70;99.90
32428;DHT22;18882;50.952;4.366;2022-08-21T02:06:38;15.70;99.90
32428;DHT22;18882;50.952;4.366;2022-08-21T02:09:05;15.70;99.90
32428;DHT22;18882;50.952;4.366;2022-08-21T02:11:33;15.60;99.90
32428;DHT22;18882;50.952;4.366;2022-08-21T02:13:58;15.60;99.90
32428;DHT22;18882;50.952;4.366;2022-08-21T02:16:24;15.50;99.90
32428;DHT22;18882;50.952;4.366;2022-08-21T02:18:50;15.50;99.90
32428;DHT22;18882;50.952;4.366;2022-08-21T02:21:16;15.40;99.90
32428;DHT22;18882;50.952;4.366;2022-08-21T02:23:42;15.30;99.90
32428;DHT22;18882;50.952;4.366;2022-08-21T02:26:08;15.30;99.90
32428;DHT22;18882;50.952;4.366;2022-08-21T02:28:35;15.30;99.90
32428;DHT22;18882;50.952;4.366;2022-08-21T02:31:01;15.40;99.90
32428;DHT22;18882;50.952;4.366;2022-08-21T02:33:28;15.40;99.90
32428;DHT22;18882;50.952;4.366;2022-08-21T02:35:54;15.40;99.90
32428;DHT22;18882;50.952;4.366;2022-08-21T02:38:23;15.30;99.90
32428;DHT22;18882;50.952;4.366;2022-08-21T02:40:50;15.30;99.90
32428;DHT22;18882;50.952;4.366;2022-08-21T02:43:18;15.30;99.90
32428;DHT22;18882;50.952;4.366;2022-08-21T02:45:44;15.40;99.90
32428;DHT22;18882;50.952;4.366;2022-08-21T02:48:12;15.40;99.90
32428;DHT22;18882;50.952;4.366;2022-08-21T02:50:44;15.40;99.90
32428;DHT22;18882;50.952;4.366;2022-08-21T02:53:11;15.40;99.90
32428;DHT22;18882;50.952;4.366;2022-08-21T02:55:46;15.50;99.90
32428;DHT22;18882;50.952;4.366;2022-08-21T02:58:14;15.50;99.90
32428;DHT22;18882;50.952;4.366;2022-08-21T03:00:41;15.40;99.90
32428;DHT22;18882;50.952;4.366;2022-08-21T03:03:07;15.50;99.90
32428;DHT22;18882;50.952;4.366;2022-08-21T03:05:35;15.40;99.90
32428;DHT22;18882;50.952;4.366;2022-08-21T03:08:04;15.40;99.90
32428;DHT22;18882;50.952;4.366;2022-08-21T03:10:30;15.40;99.90
32428;DHT22;18882;50.952;4.366;2022-08-21T03:12:56;15.40;99.90
32428;DHT22;18882;50.952;4.366;2022-08-21T03:15:23;15.40;99.90
32428;DHT22;18882;50.952;4.366;2022-08-21T03:17:49;15.40;99.90
32428;DHT22;18882;50.952;4.366;2022-08-21T03:20:19;15.40;99.90
32428;DHT22;18882;50.952;4.366;2022-08-21T03:22:47;15.40;99.90
32428;DHT22;18882;50.952;4.366;2022-08-21T03:25:12;15.40;99.90
32428;DHT22;18882;50.952;4.366;2022-08-21T03:27:38;15.40;99.90
32428;DHT22;18882;50.952;4.366;2022-08-21T03:30:06;15.40;99.90
32428;DHT22;18882;50.952;4.366;2022-08-21T03:32:32;15.30;99.90
32428;DHT22;18882;50.952;4.366;2022-08-21T03:34:58;15.30;99.90
32428;DHT22;18882;50.952;4.366;2022-08-21T03:37:25;15.30;99.90
32428;DHT22;18882;50.952;4.366;2022-08-21T03:39:51;15.20;99.90
32428;DHT22;18882;50.952;4.366;2022-08-21T03:42:17;15.10;99.90
32428;DHT22;18882;50.952;4.366;2022-08-21T03:44:43;15.10;99.90
32428;DHT22;18882;50.952;4.366;2022-08-21T03:47:09;15.10;99.90
32428;DHT22;18882;50.952;4.366;2022-08-21T03:49:36;15.10;99.90
32428;DHT22;18882;50.952;4.366;2022-08-21T03:52:03;15.10;99.90
32428;DHT22;18882;50.952;4.366;2022-08-21T03:54:29;15.10;99.90
32428;DHT22;18882;50.952;4.366;2022-08-21T03:56:54;15.20;99.90
32428;DHT22;18882;50.952;4.366;2022-08-21T03:59:21;15.10;99.90
32428;DHT22;18882;50.952;4.366;2022-08-21T04:01:55;15.10;99.90
32428;DHT22;18882;50.952;4.366;2022-08-21T04:04:22;15.20;99.90
32428;DHT22;18882;50.952;4.366;2022-08-21T04:06:48;15.10;99.90
32428;DHT22;18882;50.952;4.366;2022-08-21T04:09:15;15.00;99.90
32428;DHT22;18882;50.952;4.366;2022-08-21T04:11:41;15.00;99.90
32428;DHT22;18882;50.952;4.366;2022-08-21T04:14:07;15.10;99.90
32428;DHT22;18882;50.952;4.366;2022-08-21T04:16:32;15.10;99.90
32428;DHT22;18882;50.952;4.366;2022-08-21T04:18:58;15.10;99.90
32428;DHT22;18882;50.952;4.366;2022-08-21T04:21:24;15.10;99.90
32428;DHT22;18882;50.952;4.366;2022-08-21T04:23:50;15.00;99.90
32428;DHT22;18882;50.952;4.366;2022-08-21T04:26:15;15.00;99.90
32428;DHT22;18882;50.952;4.366;2022-08-21T04:28:41;15.00;99.90
32428;DHT22;18882;50.952;4.366;2022-08-21T04:31:08;15.00;99.90
32428;DHT22;18882;50.952;4.366;2022-08-21T04:33:34;15.10;99.90
32428;DHT22;18882;50.952;4.366;2022-08-21T04:35:59;15.00;99.90
32428;DHT22;18882;50.952;4.366;2022-08-21T04:38:25;15.00;99.90
32428;DHT22;18882;50.952;4.366;2022-08-21T04:40:51;14.90;99.90
32428;DHT22;18882;50.952;4.366;2022-08-21T04:43:19;14.90;99.90
32428;DHT22;18882;50.952;4.366;2022-08-21T04:45:48;15.00;99.90
32428;DHT22;18882;50.952;4.366;2022-08-21T04:48:16;14.90;99.90
32428;DHT22;18882;50.952;4.366;2022-08-21T04:51:01;14.80;99.90
32428;DHT22;18882;50.952;4.366;2022-08-21T04:55:57;14.90;99.90
32428;DHT22;18882;50.952;4.366;2022-08-21T04:58:26;15.00;99.90
32428;DHT22;18882;50.952;4.366;2022-08-21T05:00:54;14.90;99.90
32428;DHT22;18882;50.952;4.366;2022-08-21T05:03:22;15.00;99.90
32428;DHT22;18882;50.952;4.366;2022-08-21T05:05:48;15.00;99.90
32428;DHT22;18882;50.952;4.366;2022-08-21T05:08:18;14.90;99.90
32428;DHT22;18882;50.952;4.366;2022-08-21T05:10:44;14.90;99.90
32428;DHT22;18882;50.952;4.366;2022-08-21T05:13:12;14.90;99.90
32428;DHT22;18882;50.952;4.366;2022-08-21T05:15:39;15.00;99.90
32428;DHT22;18882;50.952;4.366;2022-08-21T05:18:05;14.90;99.90
32428;DHT22;18882;50.952;4.366;2022-08-21T05:20:32;14.90;99.90
32428;DHT22;18882;50.952;4.366;2022-08-21T05:23:00;14.90;99.90
32428;DHT22;18882;50.952;4.366;2022-08-21T05:25:26;14.80;99.90
32428;DHT22;18882;50.952;4.366;2022-08-21T05:27:52;14.90;99.90
32428;DHT22;18882;50.952;4.366;2022-08-21T05:30:19;15.00;99.90
32428;DHT22;18882;50.952;4.366;2022-08-21T05:32:46;15.10;99.90
32428;DHT22;18882;50.952;4.366;2022-08-21T05:35:12;15.20;99.90
32428;DHT22;18882;50.952;4.366;2022-08-21T05:37:38;15.20;99.90
32428;DHT22;18882;50.952;4.366;2022-08-21T05:40:05;15.10;99.90
32428;DHT22;18882;50.952;4.366;2022-08-21T05:42:31;15.20;99.90
32428;DHT22;18882;50.952;4.366;2022-08-21T05:44:57;15.30;99.90
32428;DHT22;18882;50.952;4.366;2022-08-21T05:47:23;15.40;99.90
32428;DHT22;18882;50.952;4.366;2022-08-21T05:49:48;15.40;99.90
32428;DHT22;18882;50.952;4.366;2022-08-21T05:52:19;15.50;99.90
32428;DHT22;18882;50.952;4.366;2022-08-21T05:54:45;15.70;99.90
32428;DHT22;18882;50.952;4.366;2022-08-21T05:57:11;15.70;99.90
32428;DHT22;18882;50.952;4.366;2022-08-21T05:59:36;15.70;99.90
32428;DHT22;18882;50.952;4.366;2022-08-21T06:02:02;15.80;99.90
32428;DHT22;18882;50.952;4.366;2022-08-21T06:04:28;15.80;99.90
32428;DHT22;18882;50.952;4.366;2022-08-21T06:06:54;15.80;99.90
32428;DHT22;18882;50.952;4.366;2022-08-21T06:09:19;15.90;99.90
32428;DHT22;18882;50.952;4.366;2022-08-21T06:11:45;16.00;99.90
32428;DHT22;18882;50.952;4.366;2022-08-21T06:14:14;16.20;99.90
32428;DHT22;18882;50.952;4.366;2022-08-21T06:16:40;16.30;99.90
32428;DHT22;18882;50.952;4.366;2022-08-21T06:19:06;16.40;99.90
32428;DHT22;18882;50.952;4.366;2022-08-21T06:21:31;16.40;99.90
32428;DHT22;18882;50.952;4.366;2022-08-21T06:23:57;16.50;99.90
32428;DHT22;18882;50.952;4.366;2022-08-21T06:26:23;16.60;99.90
32428;DHT22;18882;50.952;4.366;2022-08-21T06:28:49;16.80;99.90
32428;DHT22;18882;50.952;4.366;2022-08-21T06:31:18;17.00;99.90
32428;DHT22;18882;50.952;4.366;2022-08-21T06:33:44;17.20;99.90
32428;DHT22;18882;50.952;4.366;2022-08-21T06:36:10;17.30;99.90
32428;DHT22;18882;50.952;4.366;2022-08-21T06:38:36;17.50;99.90
32428;DHT22;18882;50.952;4.366;2022-08-21T06:41:03;17.70;99.90
32428;DHT22;18882;50.952;4.366;2022-08-21T06:43:30;17.80;99.90
32428;DHT22;18882;50.952;4.366;2022-08-21T06:45:55;17.90;99.90
32428;DHT22;18882;50.952;4.366;2022-08-21T06:48:21;17.90;99.90
32428;DHT22;18882;50.952;4.366;2022-08-21T06:50:47;17.90;99.90
32428;DHT22;18882;50.952;4.366;2022-08-21T06:53:14;17.90;99.90
32428;DHT22;18882;50.952;4.366;2022-08-21T06:55:40;18.00;99.90
32428;DHT22;18882;50.952;4.366;2022-08-21T06:58:08;18.10;99.90
32428;DHT22;18882;50.952;4.366;2022-08-21T07:00:36;18.20;99.90
32428;DHT22;18882;50.952;4.366;2022-08-21T07:03:03;18.10;99.90
32428;DHT22;18882;50.952;4.366;2022-08-21T07:05:29;18.20;99.90
32428;DHT22;18882;50.952;4.366;2022-08-21T07:07:56;18.30;99.90
32428;DHT22;18882;50.952;4.366;2022-08-21T07:10:25;18.40;99.90
32428;DHT22;18882;50.952;4.366;2022-08-21T07:12:52;18.70;99.90
32428;DHT22;18882;50.952;4.366;2022-08-21T07:15:19;18.80;99.90
32428;DHT22;18882;50.952;4.366;2022-08-21T07:17:45;19.00;99.90
32428;DHT22;18882;50.952;4.366;2022-08-21T07:20:10;19.10;99.90
32428;DHT22;18882;50.952;4.366;2022-08-21T07:22:37;19.20;99.90
32428;DHT22;18882;50.952;4.366;2022-08-21T07:25:04;19.20;99.90
32428;DHT22;18882;50.952;4.366;2022-08-21T07:27:30;19.30;99.90
32428;DHT22;18882;50.952;4.366;2022-08-21T07:29:57;19.40;99.90
32428;DHT22;18882;50.952;4.366;2022-08-21T07:32:22;19.30;99.90
32428;DHT22;18882;50.952;4.366;2022-08-21T07:34:48;19.40;99.90
32428;DHT22;18882;50.952;4.366;2022-08-21T07:37:14;19.40;99.90
32428;DHT22;18882;50.952;4.366;2022-08-21T07:39:39;19.50;99.90
32428;DHT22;18882;50.952;4.366;2022-08-21T07:42:05;19.60;99.90
32428;DHT22;18882;50.952;4.366;2022-08-21T07:44:31;19.70;99.90
32428;DHT22;18882;50.952;4.366;2022-08-21T07:46:57;19.90;99.90
32428;DHT22;18882;50.952;4.366;2022-08-21T07:49:22;20.00;99.90
32428;DHT22;18882;50.952;4.366;2022-08-21T07:51:48;20.20;99.90
32428;DHT22;18882;50.952;4.366;2022-08-21T07:54:14;20.30;99.90
32428;DHT22;18882;50.952;4.366;2022-08-21T07:56:39;20.40;99.90
32428;DHT22;18882;50.952;4.366;2022-08-21T07:59:05;20.50;99.90
32428;DHT22;18882;50.952;4.366;2022-08-21T08:01:31;20.50;99.90
32428;DHT22;18882;50.952;4.366;2022-08-21T08:03:56;20.70;99.90
32428;DHT22;18882;50.952;4.366;2022-08-21T08:06:23;20.80;99.90
32428;DHT22;18882;50.952;4.366;2022-08-21T08:08:49;20.90;99.90
32428;DHT22;18882;50.952;4.366;2022-08-21T08:11:15;21.10;99.90
32428;DHT22;18882;50.952;4.366;2022-08-21T08:13:43;21.10;99.90
32428;DHT22;18882;50.952;4.366;2022-08-21T08:16:09;21.10;99.90
32428;DHT22;18882;50.952;4.366;2022-08-21T08:18:35;21.10;99.90
32428;DHT22;18882;50.952;4.366;2022-08-21T08:21:00;21.00;99.90
32428;DHT22;18882;50.952;4.366;2022-08-21T08:23:26;20.90;99.90
32428;DHT22;18882;50.952;4.366;2022-08-21T08:25:52;21.10;99.90
32428;DHT22;18882;50.952;4.366;2022-08-21T08:28:18;21.10;99.90
32428;DHT22;18882;50.952;4.366;2022-08-21T08:30:47;21.10;99.90
32428;DHT22;18882;50.952;4.366;2022-08-21T08:33:13;21.10;99.90
32428;DHT22;18882;50.952;4.366;2022-08-21T08:35:40;21.20;99.90
32428;DHT22;18882;50.952;4.366;2022-08-21T08:38:05;21.10;99.90
32428;DHT22;18882;50.952;4.366;2022-08-21T08:40:53;21.10;99.90
32428;DHT22;18882;50.952;4.366;2022-08-21T08:43:20;21.20;99.90
32428;DHT22;18882;50.952;4.366;2022-08-21T08:45:49;21.30;99.90
32428;DHT22;18882;50.952;4.366;2022-08-21T08:51:15;21.40;99.90
32428;DHT22;18882;50.952;4.366;2022-08-21T08:54:01;21.40;99.90
32428;DHT22;18882;50.952;4.366;2022-08-21T08:56:31;21.50;99.90
32428;DHT22;18882;50.952;4.366;2022-08-21T08:59:02;21.50;99.90
32428;DHT22;18882;50.952;4.366;2022-08-21T09:01:29;21.50;99.90
32428;DHT22;18882;50.952;4.366;2022-08-21T09:03:56;21.40;99.90
32428;DHT22;18882;50.952;4.366;2022-08-21T09:09:38;21.50;99.90
32428;DHT22;18882;50.952;4.366;2022-08-21T09:20:47;21.90;99.90
32428;DHT22;18882;50.952;4.366;2022-08-21T09:26:23;22.10;99.90
32428;DHT22;18882;50.952;4.366;2022-08-21T09:28:56;22.10;99.90
32428;DHT22;18882;50.952;4.366;2022-08-21T09:31:29;22.30;99.90
32428;DHT22;18882;50.952;4.366;2022-08-21T09:34:05;22.40;99.90
32428;DHT22;18882;50.952;4.366;2022-08-21T09:36:43;22.50;99.90
32428;DHT22;18882;50.952;4.366;2022-08-21T09:39:11;22.80;99.90
32428;DHT22;18882;50.952;4.366;2022-08-21T09:41:39;23.10;99.90
32428;DHT22;18882;50.952;4.366;2022-08-21T09:44:06;23.20;99.90
32428;DHT22;18882;50.952;4.366;2022-08-21T09:46:33;23.30;99.90
32428;DHT22;18882;50.952;4.366;2022-08-21T09:49:01;23.50;99.90
32428;DHT22;18882;50.952;4.366;2022-08-21T09:51:37;23.60;99.90
32428;DHT22;18882;50.952;4.366;2022-08-21T09:56:35;23.30;99.90
32428;DHT22;18882;50.952;4.366;2022-08-21T09:59:27;23.20;99.90
32428;DHT22;18882;50.952;4.366;2022-08-21T10:01:57;23.20;99.90
32428;DHT22;18882;50.952;4.366;2022-08-21T10:04:31;23.30;99.90
32428;DHT22;18882;50.952;4.366;2022-08-21T10:07:14;23.40;99.90
32428;DHT22;18882;50.952;4.366;2022-08-21T10:09:41;23.70;99.90
32428;DHT22;18882;50.952;4.366;2022-08-21T10:12:16;24.00;99.90
32428;DHT22;18882;50.952;4.366;2022-08-21T10:20:52;24.90;99.90
32428;DHT22;18882;50.952;4.366;2022-08-21T10:26:31;26.00;99.90
32428;DHT22;18882;50.952;4.366;2022-08-21T10:31:50;26.20;99.90
32428;DHT22;18882;50.952;4.366;2022-08-21T10:37:39;26.30;99.90
32428;DHT22;18882;50.952;4.366;2022-08-21T10:40:18;26.20;99.90
32428;DHT22;18882;50.952;4.366;2022-08-21T10:53:54;26.20;99.90
32428;DHT22;18882;50.952;4.366;2022-08-21T10:56:30;26.20;99.90
32428;DHT22;18882;50.952;4.366;2022-08-21T11:06:32;25.10;99.90
32428;DHT22;18882;50.952;4.366;2022-08-21T11:09:14;25.30;99.90
32428;DHT22;18882;50.952;4.366;2022-08-21T11:11:57;25.40;99.90
32428;DHT22;18882;50.952;4.366;2022-08-21T11:14:56;25.50;99.90
32428;DHT22;18882;50.952;4.366;2022-08-21T11:17:30;25.60;99.90
32428;DHT22;18882;50.952;4.366;2022-08-21T11:20:21;25.60;99.90
32428;DHT22;18882;50.952;4.366;2022-08-21T11:23:03;25.40;99.90
32428;DHT22;18882;50.952;4.366;2022-08-21T11:25:32;25.10;99.90
32428;DHT22;18882;50.952;4.366;2022-08-21T11:28:06;25.00;99.90
32428;DHT22;18882;50.952;4.366;2022-08-21T11:31:04;25.10;99.90
32428;DHT22;18882;50.952;4.366;2022-08-21T11:38:57;25.60;99.90
32428;DHT22;18882;50.952;4.366;2022-08-21T11:41:37;25.70;99.90
32428;DHT22;18882;50.952;4.366;2022-08-21T11:44:20;25.70;99.90
32428;DHT22;18882;50.952;4.366;2022-08-21T11:52:35;25.40;99.90
32428;DHT22;18882;50.952;4.366;2022-08-21T11:55:16;25.10;99.90
32428;DHT22;18882;50.952;4.366;2022-08-21T12:01:15;25.00;99.90
32428;DHT22;18882;50.952;4.366;2022-08-21T12:04:23;25.00;99.90
32428;DHT22;18882;50.952;4.366;2022-08-21T12:07:12;24.40;99.90
32428;DHT22;18882;50.952;4.366;2022-08-21T12:09:38;24.50;99.90
32428;DHT22;18882;50.952;4.366;2022-08-21T12:14:50;24.80;99.90
32428;DHT22;18882;50.952;4.366;2022-08-21T12:17:22;25.00;99.90
32428;DHT22;18882;50.952;4.366;2022-08-21T12:20:00;25.30;99.90
32428;DHT22;18882;50.952;4.366;2022-08-21T12:22:40;25.40;99.90
32428;DHT22;18882;50.952;4.366;2022-08-21T12:25:09;25.40;99.90
32428;DHT22;18882;50.952;4.366;2022-08-21T12:33:00;25.60;99.90
32428;DHT22;18882;50.952;4.366;2022-08-21T12:35:32;25.60;99.90
32428;DHT22;18882;50.952;4.366;2022-08-21T12:38:14;25.60;99.90
32428;DHT22;18882;50.952;4.366;2022-08-21T12:41:01;25.70;99.90
32428;DHT22;18882;50.952;4.366;2022-08-21T12:43:53;25.50;99.90
32428;DHT22;18882;50.952;4.366;2022-08-21T12:46:56;25.50;99.90
32428;DHT22;18882;50.952;4.366;2022-08-21T12:49:26;25.50;99.90
32428;DHT22;18882;50.952;4.366;2022-08-21T12:52:40;25.40;99.90
32428;DHT22;18882;50.952;4.366;2022-08-21T12:54:45;25.40;99.90
32428;DHT22;18882;50.952;4.366;2022-08-21T12:57:23;25.60;99.90
32428;DHT22;18882;50.952;4.366;2022-08-21T13:02:23;25.60;99.90
32428;DHT22;18882;50.952;4.366;2022-08-21T13:04:50;25.60;99.90
32428;DHT22;18882;50.952;4.366;2022-08-21T13:07:25;25.50;99.90
32428;DHT22;18882;50.952;4.366;2022-08-21T13:10:05;25.40;99.90
32428;DHT22;18882;50.952;4.366;2022-08-21T13:12:32;25.40;99.90
32428;DHT22;18882;50.952;4.366;2022-08-21T13:15:04;25.40;99.90
32428;DHT22;18882;50.952;4.366;2022-08-21T13:17:33;25.40;99.90
32428;DHT22;18882;50.952;4.366;2022-08-21T13:20:06;25.40;99.90
32428;DHT22;18882;50.952;4.366;2022-08-21T13:22:31;25.40;99.90
32428;DHT22;18882;50.952;4.366;2022-08-21T13:24:57;25.40;99.90
32428;DHT22;18882;50.952;4.366;2022-08-21T13:27:26;25.50;99.90
32428;DHT22;18882;50.952;4.366;2022-08-21T13:32:35;25.60;99.90
32428;DHT22;18882;50.952;4.366;2022-08-21T13:35:16;25.60;99.90
32428;DHT22;18882;50.952;4.366;2022-08-21T13:37:43;25.70;99.90
32428;DHT22;18882;50.952;4.366;2022-08-21T13:40:14;25.70;99.90
32428;DHT22;18882;50.952;4.366;2022-08-21T13:42:42;25.60;99.90
32428;DHT22;18882;50.952;4.366;2022-08-21T13:45:27;25.60;99.90
32428;DHT22;18882;50.952;4.366;2022-08-21T13:47:53;25.90;99.90
32428;DHT22;18882;50.952;4.366;2022-08-21T13:50:22;26.10;99.90
32428;DHT22;18882;50.952;4.366;2022-08-21T13:52:55;26.10;99.90
32428;DHT22;18882;50.952;4.366;2022-08-21T13:55:21;26.20;99.90
32428;DHT22;18882;50.952;4.366;2022-08-21T13:57:46;26.10;99.90
32428;DHT22;18882;50.952;4.366;2022-08-21T14:02:43;26.10;99.90
32428;DHT22;18882;50.952;4.366;2022-08-21T14:05:25;25.60;99.90
32428;DHT22;18882;50.952;4.366;2022-08-21T14:08:14;25.50;99.90
32428;DHT22;18882;50.952;4.366;2022-08-21T14:10:48;25.60;99.90
32428;DHT22;18882;50.952;4.366;2022-08-21T14:15:59;24.90;99.90
32428;DHT22;18882;50.952;4.366;2022-08-21T14:18:26;24.80;99.90
32428;DHT22;18882;50.952;4.366;2022-08-21T14:21:07;24.30;99.90
32428;DHT22;18882;50.952;4.366;2022-08-21T14:23:33;24.40;99.90
32428;DHT22;18882;50.952;4.366;2022-08-21T14:26:04;24.60;99.90
32428;DHT22;18882;50.952;4.366;2022-08-21T14:28:39;24.70;99.90
32428;DHT22;18882;50.952;4.366;2022-08-21T14:31:17;24.40;99.90
32428;DHT22;18882;50.952;4.366;2022-08-21T14:33:43;24.50;99.90
32428;DHT22;18882;50.952;4.366;2022-08-21T14:36:09;24.60;99.90
32428;DHT22;18882;50.952;4.366;2022-08-21T14:38:37;24.80;99.90
32428;DHT22;18882;50.952;4.366;2022-08-21T14:41:15;25.10;99.90
32428;DHT22;18882;50.952;4.366;2022-08-21T14:43:42;24.80;99.90
32428;DHT22;18882;50.952;4.366;2022-08-21T14:46:08;24.80;99.90
32428;DHT22;18882;50.952;4.366;2022-08-21T14:48:33;25.10;99.90
32428;DHT22;18882;50.952;4.366;2022-08-21T14:50:59;25.30;99.90
32428;DHT22;18882;50.952;4.366;2022-08-21T14:53:24;25.40;99.90
32428;DHT22;18882;50.952;4.366;2022-08-21T14:55:50;25.50;99.90
32428;DHT22;18882;50.952;4.366;2022-08-21T14:58:43;25.60;99.90
32428;DHT22;18882;50.952;4.366;2022-08-21T15:01:11;25.70;99.90
32428;DHT22;18882;50.952;4.366;2022-08-21T15:03:37;25.80;99.90
32428;DHT22;18882;50.952;4.366;2022-08-21T15:06:05;25.90;99.90
32428;DHT22;18882;50.952;4.366;2022-08-21T15:08:31;26.00;99.90
32428;DHT22;18882;50.952;4.366;2022-08-21T15:10:58;26.10;99.90
32428;DHT22;18882;50.952;4.366;2022-08-21T15:13:24;26.00;99.90
32428;DHT22;18882;50.952;4.366;2022-08-21T15:15:51;25.90;99.90
32428;DHT22;18882;50.952;4.366;2022-08-21T15:18:25;25.50;99.90
32428;DHT22;18882;50.952;4.366;2022-08-21T15:20:51;24.90;99.90
32428;DHT22;18882;50.952;4.366;2022-08-21T15:23:17;24.80;99.90
32428;DHT22;18882;50.952;4.366;2022-08-21T15:25:45;24.80;99.90
32428;DHT22;18882;50.952;4.366;2022-08-21T15:28:12;24.80;99.90
32428;DHT22;18882;50.952;4.366;2022-08-21T15:30:39;25.10;99.90
32428;DHT22;18882;50.952;4.366;2022-08-21T15:33:06;25.40;99.90
32428;DHT22;18882;50.952;4.366;2022-08-21T15:35:32;25.50;99.90
32428;DHT22;18882;50.952;4.366;2022-08-21T15:37:58;25.60;99.90
32428;DHT22;18882;50.952;4.366;2022-08-21T15:40:24;25.60;99.90
32428;DHT22;18882;50.952;4.366;2022-08-21T15:42:53;25.60;99.90
32428;DHT22;18882;50.952;4.366;2022-08-21T15:45:21;25.50;99.90
32428;DHT22;18882;50.952;4.366;2022-08-21T15:47:49;24.80;99.90
32428;DHT22;18882;50.952;4.366;2022-08-21T15:50:15;24.80;99.90
32428;DHT22;18882;50.952;4.366;2022-08-21T15:52:41;25.10;99.90
32428;DHT22;18882;50.952;4.366;2022-08-21T15:55:07;25.20;99.90
32428;DHT22;18882;50.952;4.366;2022-08-21T15:57:34;25.30;99.90
32428;DHT22;18882;50.952;4.366;2022-08-21T16:00:07;25.40;99.90
32428;DHT22;18882;50.952;4.366;2022-08-21T16:02:39;25.50;99.90
32428;DHT22;18882;50.952;4.366;2022-08-21T16:05:06;25.40;99.90
32428;DHT22;18882;50.952;4.366;2022-08-21T16:07:32;25.50;99.90
32428;DHT22;18882;50.952;4.366;2022-08-21T16:09:58;25.40;99.90
32428;DHT22;18882;50.952;4.366;2022-08-21T16:12:29;25.20;99.90
32428;DHT22;18882;50.952;4.366;2022-08-21T16:14:58;25.20;99.90
32428;DHT22;18882;50.952;4.366;2022-08-21T16:17:30;25.20;99.90
32428;DHT22;18882;50.952;4.366;2022-08-21T16:19:57;25.20;99.90
32428;DHT22;18882;50.952;4.366;2022-08-21T16:22:23;25.20;99.90
32428;DHT22;18882;50.952;4.366;2022-08-21T16:24:48;25.20;99.90
32428;DHT22;18882;50.952;4.366;2022-08-21T16:27:14;25.00;99.90
32428;DHT22;18882;50.952;4.366;2022-08-21T16:29:42;25.00;99.90
32428;DHT22;18882;50.952;4.366;2022-08-21T16:32:07;25.00;99.90
32428;DHT22;18882;50.952;4.366;2022-08-21T16:34:34;25.00;99.90
32428;DHT22;18882;50.952;4.366;2022-08-21T16:37:00;25.00;99.90
32428;DHT22;18882;50.952;4.366;2022-08-21T16:39:26;25.00;99.90
32428;DHT22;18882;50.952;4.366;2022-08-21T16:41:51;25.00;99.90
32428;DHT22;18882;50.952;4.366;2022-08-21T16:44:21;25.10;99.90
32428;DHT22;18882;50.952;4.366;2022-08-21T16:46:47;25.10;99.90
32428;DHT22;18882;50.952;4.366;2022-08-21T16:49:13;25.10;99.90
32428;DHT22;18882;50.952;4.366;2022-08-21T16:51:39;25.10;99.90
32428;DHT22;18882;50.952;4.366;2022-08-21T16:54:04;25.00;99.90
32428;DHT22;18882;50.952;4.366;2022-08-21T16:56:30;25.00;99.90
32428;DHT22;18882;50.952;4.366;2022-08-21T16:58:57;25.10;99.90
32428;DHT22;18882;50.952;4.366;2022-08-21T17:01:28;25.00;99.90
32428;DHT22;18882;50.952;4.366;2022-08-21T17:03:54;25.00;99.90
32428;DHT22;18882;50.952;4.366;2022-08-21T17:06:20;25.00;99.90
32428;DHT22;18882;50.952;4.366;2022-08-21T17:08:47;24.60;99.90
32428;DHT22;18882;50.952;4.366;2022-08-21T17:11:22;24.50;99.90